sensor_id;sensor_type;location;lat;lon;timestamp;P1;durP1;ratioP1;P2;durP2;ratioP2
45686;SDS011;31399;51.176;7.776;2022-07-29T00:01:01;2.03;;;0.70;;
45686;SDS011;31399;51.176;7.776;2022-07-29T00:03:28;3.75;;;0.98;;
45686;SDS011;31399;51.176;7.776;2022-07-29T00:05:54;1.88;;;0.70;;
45686;SDS011;31399;51.176;7.776;2022-07-29T00:08:21;4.70;;;0.80;;
45686;SDS011;31399;51.176;7.776;2022-07-29T00:10:49;1.55;;;0.63;;
45686;SDS011;31399;51.176;7.776;2022-07-29T00:13:15;3.50;;;0.80;;
45686;SDS011;31399;51.176;7.776;2022-07-29T00:15:42;3.13;;;0.95;;
45686;SDS011;31399;51.176;7.776;2022-07-29T00:18:08;3.30;;;0.82;;
45686;SDS011;31399;51.176;7.776;2022-07-29T00:20:35;4.55;;;0.77;;
45686;SDS011;31399;51.176;7.776;2022-07-29T00:23:01;3.15;;;0.85;;
45686;SDS011;31399;51.176;7.776;2022-07-29T00:25:28;3.45;;;0.80;;
45686;SDS011;31399;51.176;7.776;2022-07-29T00:27:55;2.97;;;0.65;;
45686;SDS011;31399;51.176;7.776;2022-07-29T00:30:22;2.63;;;0.80;;
45686;SDS011;31399;51.176;7.776;2022-07-29T00:32:49;3.25;;;0.80;;
45686;SDS011;31399;51.176;7.776;2022-07-29T00:35:15;3.05;;;0.63;;
45686;SDS011;31399;51.176;7.776;2022-07-29T00:38:01;1.67;;;0.65;;
45686;SDS011;31399;51.176;7.776;2022-07-29T00:40:27;3.33;;;0.93;;
45686;SDS011;31399;51.176;7.776;2022-07-29T00:42:54;1.45;;;0.47;;
45686;SDS011;31399;51.176;7.776;2022-07-29T00:45:20;2.33;;;0.50;;
45686;SDS011;31399;51.176;7.776;2022-07-29T00:47:48;6.57;;;0.70;;
45686;SDS011;31399;51.176;7.776;2022-07-29T00:50:15;3.35;;;0.50;;
45686;SDS011;31399;51.176;7.776;2022-07-29T00:52:42;1.33;;;0.70;;
45686;SDS011;31399;51.176;7.776;2022-07-29T00:55:10;2.30;;;0.60;;
45686;SDS011;31399;51.176;7.776;2022-07-29T00:57:38;4.13;;;0.63;;
45686;SDS011;31399;51.176;7.776;2022-07-29T01:00:05;3.22;;;0.70;;
45686;SDS011;31399;51.176;7.776;2022-07-29T01:02:33;2.63;;;0.70;;
45686;SDS011;31399;51.176;7.776;2022-07-29T01:05:00;3.05;;;0.60;;
45686;SDS011;31399;51.176;7.776;2022-07-29T01:07:27;3.10;;;1.02;;
45686;SDS011;31399;51.176;7.776;2022-07-29T01:09:55;2.85;;;0.75;;
45686;SDS011;31399;51.176;7.776;2022-07-29T01:12:25;4.68;;;0.70;;
45686;SDS011;31399;51.176;7.776;2022-07-29T01:14:53;2.72;;;0.70;;
45686;SDS011;31399;51.176;7.776;2022-07-29T01:17:28;3.80;;;0.68;;
45686;SDS011;31399;51.176;7.776;2022-07-29T01:31:04;2.58;;;0.82;;
45686;SDS011;31399;51.176;7.776;2022-07-29T01:33:34;2.10;;;0.63;;
45686;SDS011;31399;51.176;7.776;2022-07-29T01:36:18;2.42;;;0.60;;
45686;SDS011;31399;51.176;7.776;2022-07-29T01:39:02;2.10;;;0.65;;
45686;SDS011;31399;51.176;7.776;2022-07-29T01:41:32;2.88;;;0.80;;
45686;SDS011;31399;51.176;7.776;2022-07-29T01:44:10;3.17;;;0.77;;
45686;SDS011;31399;51.176;7.776;2022-07-29T01:46:40;1.95;;;0.63;;
45686;SDS011;31399;51.176;7.776;2022-07-29T01:49:16;3.85;;;1.00;;
45686;SDS011;31399;51.176;7.776;2022-07-29T01:51:47;2.03;;;1.33;;
45686;SDS011;31399;51.176;7.776;2022-07-29T01:54:49;3.83;;;0.70;;
45686;SDS011;31399;51.176;7.776;2022-07-29T01:57:18;5.03;;;0.75;;
45686;SDS011;31399;51.176;7.776;2022-07-29T01:59:47;1.27;;;0.70;;
45686;SDS011;31399;51.176;7.776;2022-07-29T02:02:15;2.75;;;0.80;;
45686;SDS011;31399;51.176;7.776;2022-07-29T02:04:43;1.30;;;0.65;;
45686;SDS011;31399;51.176;7.776;2022-07-29T02:07:15;5.88;;;0.60;;
45686;SDS011;31399;51.176;7.776;2022-07-29T02:09:44;4.97;;;0.60;;
45686;SDS011;31399;51.176;7.776;2022-07-29T02:12:12;1.15;;;0.60;;
45686;SDS011;31399;51.176;7.776;2022-07-29T02:14:41;3.40;;;0.60;;
45686;SDS011;31399;51.176;7.776;2022-07-29T02:17:12;3.15;;;0.65;;
45686;SDS011;31399;51.176;7.776;2022-07-29T02:19:39;4.93;;;0.82;;
45686;SDS011;31399;51.176;7.776;2022-07-29T02:22:07;3.00;;;0.70;;
45686;SDS011;31399;51.176;7.776;2022-07-29T02:24:35;3.35;;;0.90;;
45686;SDS011;31399;51.176;7.776;2022-07-29T02:27:03;2.80;;;0.90;;
45686;SDS011;31399;51.176;7.776;2022-07-29T02:29:30;2.88;;;0.73;;
45686;SDS011;31399;51.176;7.776;2022-07-29T02:31:57;1.23;;;0.75;;
45686;SDS011;31399;51.176;7.776;2022-07-29T02:34:25;4.20;;;1.10;;
45686;SDS011;31399;51.176;7.776;2022-07-29T02:36:52;3.10;;;0.90;;
45686;SDS011;31399;51.176;7.776;2022-07-29T02:39:20;2.92;;;0.70;;
45686;SDS011;31399;51.176;7.776;2022-07-29T02:41:49;2.08;;;0.80;;
45686;SDS011;31399;51.176;7.776;2022-07-29T02:44:18;3.50;;;0.90;;
45686;SDS011;31399;51.176;7.776;2022-07-29T02:46:51;1.63;;;0.60;;
45686;SDS011;31399;51.176;7.776;2022-07-29T02:49:30;1.42;;;0.70;;
45686;SDS011;31399;51.176;7.776;2022-07-29T02:52:05;3.53;;;0.80;;
45686;SDS011;31399;51.176;7.776;2022-07-29T02:54:44;5.50;;;0.88;;
45686;SDS011;31399;51.176;7.776;2022-07-29T03:00:21;3.38;;;0.80;;
45686;SDS011;31399;51.176;7.776;2022-07-29T03:02:49;3.78;;;0.80;;
45686;SDS011;31399;51.176;7.776;2022-07-29T03:05:18;3.88;;;1.10;;
45686;SDS011;31399;51.176;7.776;2022-07-29T03:07:47;1.88;;;0.77;;
45686;SDS011;31399;51.176;7.776;2022-07-29T03:10:17;3.67;;;1.30;;
45686;SDS011;31399;51.176;7.776;2022-07-29T03:12:44;2.50;;;1.17;;
45686;SDS011;31399;51.176;7.776;2022-07-29T03:15:11;3.13;;;0.80;;
45686;SDS011;31399;51.176;7.776;2022-07-29T03:17:38;3.75;;;0.80;;
45686;SDS011;31399;51.176;7.776;2022-07-29T03:20:06;2.10;;;1.00;;
45686;SDS011;31399;51.176;7.776;2022-07-29T03:22:38;3.38;;;1.33;;
45686;SDS011;31399;51.176;7.776;2022-07-29T03:25:10;1.95;;;0.90;;
45686;SDS011;31399;51.176;7.776;2022-07-29T03:27:37;1.92;;;0.77;;
45686;SDS011;31399;51.176;7.776;2022-07-29T03:30:04;2.75;;;0.63;;
45686;SDS011;31399;51.176;7.776;2022-07-29T03:32:34;5.05;;;0.70;;
45686;SDS011;31399;51.176;7.776;2022-07-29T03:35:01;2.28;;;0.70;;
45686;SDS011;31399;51.176;7.776;2022-07-29T03:37:28;3.25;;;0.70;;
45686;SDS011;31399;51.176;7.776;2022-07-29T03:39:56;6.30;;;1.33;;
45686;SDS011;31399;51.176;7.776;2022-07-29T03:42:24;2.30;;;0.70;;
45686;SDS011;31399;51.176;7.776;2022-07-29T03:45:00;8.50;;;1.00;;
45686;SDS011;31399;51.176;7.776;2022-07-29T03:47:28;2.17;;;0.88;;
45686;SDS011;31399;51.176;7.776;2022-07-29T03:50:16;3.20;;;0.90;;
45686;SDS011;31399;51.176;7.776;2022-07-29T03:52:44;4.50;;;1.42;;
45686;SDS011;31399;51.176;7.776;2022-07-29T03:55:11;5.88;;;1.00;;
45686;SDS011;31399;51.176;7.776;2022-07-29T03:57:38;3.55;;;0.85;;
45686;SDS011;31399;51.176;7.776;2022-07-29T04:00:06;3.95;;;1.13;;
45686;SDS011;31399;51.176;7.776;2022-07-29T04:02:33;3.22;;;0.98;;
45686;SDS011;31399;51.176;7.776;2022-07-29T04:05:00;3.97;;;0.80;;
45686;SDS011;31399;51.176;7.776;2022-07-29T04:07:27;1.67;;;0.60;;
45686;SDS011;31399;51.176;7.776;2022-07-29T04:09:53;3.00;;;0.90;;
45686;SDS011;31399;51.176;7.776;2022-07-29T04:12:20;2.88;;;0.80;;
45686;SDS011;31399;51.176;7.776;2022-07-29T04:14:47;5.00;;;0.90;;
45686;SDS011;31399;51.176;7.776;2022-07-29T04:17:13;1.65;;;0.70;;
45686;SDS011;31399;51.176;7.776;2022-07-29T04:19:40;2.78;;;1.13;;
45686;SDS011;31399;51.176;7.776;2022-07-29T04:22:06;2.40;;;1.20;;
45686;SDS011;31399;51.176;7.776;2022-07-29T04:24:33;2.67;;;0.90;;
45686;SDS011;31399;51.176;7.776;2022-07-29T04:27:00;1.92;;;0.88;;
45686;SDS011;31399;51.176;7.776;2022-07-29T04:29:27;1.92;;;1.02;;
45686;SDS011;31399;51.176;7.776;2022-07-29T04:31:53;3.85;;;1.00;;
45686;SDS011;31399;51.176;7.776;2022-07-29T04:34:20;4.38;;;1.10;;
45686;SDS011;31399;51.176;7.776;2022-07-29T04:36:47;4.90;;;0.70;;
45686;SDS011;31399;51.176;7.776;2022-07-29T04:39:13;6.57;;;1.00;;
45686;SDS011;31399;51.176;7.776;2022-07-29T04:41:47;2.38;;;0.90;;
45686;SDS011;31399;51.176;7.776;2022-07-29T04:44:14;3.15;;;0.80;;
45686;SDS011;31399;51.176;7.776;2022-07-29T04:46:42;2.95;;;0.90;;
45686;SDS011;31399;51.176;7.776;2022-07-29T04:49:08;6.40;;;0.77;;
45686;SDS011;31399;51.176;7.776;2022-07-29T04:51:35;4.63;;;1.40;;
45686;SDS011;31399;51.176;7.776;2022-07-29T04:54:02;3.70;;;0.75;;
45686;SDS011;31399;51.176;7.776;2022-07-29T04:56:28;2.47;;;0.80;;
45686;SDS011;31399;51.176;7.776;2022-07-29T04:58:55;4.85;;;0.95;;
45686;SDS011;31399;51.176;7.776;2022-07-29T05:01:21;4.28;;;1.00;;
45686;SDS011;31399;51.176;7.776;2022-07-29T05:03:48;2.33;;;1.00;;
45686;SDS011;31399;51.176;7.776;2022-07-29T05:06:14;4.22;;;1.08;;
45686;SDS011;31399;51.176;7.776;2022-07-29T05:08:41;2.33;;;1.17;;
45686;SDS011;31399;51.176;7.776;2022-07-29T05:11:08;1.67;;;0.80;;
45686;SDS011;31399;51.176;7.776;2022-07-29T05:13:37;3.00;;;1.05;;
45686;SDS011;31399;51.176;7.776;2022-07-29T05:16:11;1.63;;;1.13;;
45686;SDS011;31399;51.176;7.776;2022-07-29T05:18:38;2.10;;;0.88;;
45686;SDS011;31399;51.176;7.776;2022-07-29T05:21:04;2.65;;;0.90;;
45686;SDS011;31399;51.176;7.776;2022-07-29T05:23:31;3.15;;;0.88;;
45686;SDS011;31399;51.176;7.776;2022-07-29T05:25:57;3.60;;;0.93;;
45686;SDS011;31399;51.176;7.776;2022-07-29T05:28:24;1.75;;;0.77;;
45686;SDS011;31399;51.176;7.776;2022-07-29T05:30:50;3.40;;;0.93;;
45686;SDS011;31399;51.176;7.776;2022-07-29T05:33:17;2.03;;;1.08;;
45686;SDS011;31399;51.176;7.776;2022-07-29T05:36:01;3.78;;;1.20;;
45686;SDS011;31399;51.176;7.776;2022-07-29T05:38:28;3.17;;;0.80;;
45686;SDS011;31399;51.176;7.776;2022-07-29T05:40:56;2.75;;;1.17;;
45686;SDS011;31399;51.176;7.776;2022-07-29T05:43:23;3.75;;;0.93;;
45686;SDS011;31399;51.176;7.776;2022-07-29T05:45:50;5.00;;;0.75;;
45686;SDS011;31399;51.176;7.776;2022-07-29T05:48:17;3.72;;;1.20;;
45686;SDS011;31399;51.176;7.776;2022-07-29T05:50:43;3.33;;;1.10;;
45686;SDS011;31399;51.176;7.776;2022-07-29T05:53:10;6.28;;;1.13;;
45686;SDS011;31399;51.176;7.776;2022-07-29T05:55:45;3.78;;;1.15;;
45686;SDS011;31399;51.176;7.776;2022-07-29T05:58:11;5.38;;;1.27;;
45686;SDS011;31399;51.176;7.776;2022-07-29T06:00:38;4.82;;;1.08;;
45686;SDS011;31399;51.176;7.776;2022-07-29T06:03:05;8.50;;;1.38;;
45686;SDS011;31399;51.176;7.776;2022-07-29T06:05:31;5.28;;;1.08;;
45686;SDS011;31399;51.176;7.776;2022-07-29T06:07:58;4.78;;;1.50;;
45686;SDS011;31399;51.176;7.776;2022-07-29T06:10:24;4.93;;;1.17;;
45686;SDS011;31399;51.176;7.776;2022-07-29T06:12:52;4.28;;;1.20;;
45686;SDS011;31399;51.176;7.776;2022-07-29T06:15:19;2.08;;;0.95;;
45686;SDS011;31399;51.176;7.776;2022-07-29T06:17:45;4.95;;;1.00;;
45686;SDS011;31399;51.176;7.776;2022-07-29T06:20:26;3.20;;;1.08;;
45686;SDS011;31399;51.176;7.776;2022-07-29T06:22:56;5.40;;;1.20;;
45686;SDS011;31399;51.176;7.776;2022-07-29T06:25:22;4.43;;;1.08;;
45686;SDS011;31399;51.176;7.776;2022-07-29T06:27:49;2.60;;;0.80;;
45686;SDS011;31399;51.176;7.776;2022-07-29T06:30:15;8.30;;;1.25;;
45686;SDS011;31399;51.176;7.776;2022-07-29T06:32:42;2.90;;;1.08;;
45686;SDS011;31399;51.176;7.776;2022-07-29T06:35:09;1.95;;;0.82;;
45686;SDS011;31399;51.176;7.776;2022-07-29T06:37:55;6.30;;;1.00;;
45686;SDS011;31399;51.176;7.776;2022-07-29T06:40:25;2.75;;;1.35;;
45686;SDS011;31399;51.176;7.776;2022-07-29T06:43:10;3.30;;;1.10;;
45686;SDS011;31399;51.176;7.776;2022-07-29T06:45:37;4.88;;;1.30;;
45686;SDS011;31399;51.176;7.776;2022-07-29T06:48:07;3.77;;;1.00;;
45686;SDS011;31399;51.176;7.776;2022-07-29T06:50:34;2.55;;;1.00;;
45686;SDS011;31399;51.176;7.776;2022-07-29T06:53:01;2.25;;;1.00;;
45686;SDS011;31399;51.176;7.776;2022-07-29T06:55:28;4.97;;;1.08;;
45686;SDS011;31399;51.176;7.776;2022-07-29T06:57:54;2.88;;;1.00;;
45686;SDS011;31399;51.176;7.776;2022-07-29T07:00:21;6.18;;;1.17;;
45686;SDS011;31399;51.176;7.776;2022-07-29T07:02:47;3.90;;;1.15;;
45686;SDS011;31399;51.176;7.776;2022-07-29T07:05:14;5.28;;;1.08;;
45686;SDS011;31399;51.176;7.776;2022-07-29T07:07:41;5.85;;;0.90;;
45686;SDS011;31399;51.176;7.776;2022-07-29T07:10:07;4.40;;;1.55;;
45686;SDS011;31399;51.176;7.776;2022-07-29T07:12:34;6.25;;;1.20;;
45686;SDS011;31399;51.176;7.776;2022-07-29T07:15:01;3.28;;;0.90;;
45686;SDS011;31399;51.176;7.776;2022-07-29T07:17:28;3.30;;;1.08;;
45686;SDS011;31399;51.176;7.776;2022-07-29T07:19:54;3.08;;;1.33;;
45686;SDS011;31399;51.176;7.776;2022-07-29T07:22:21;3.70;;;0.98;;
45686;SDS011;31399;51.176;7.776;2022-07-29T07:24:47;5.03;;;0.95;;
45686;SDS011;31399;51.176;7.776;2022-07-29T07:27:14;2.65;;;1.10;;
45686;SDS011;31399;51.176;7.776;2022-07-29T07:29:40;3.83;;;0.93;;
45686;SDS011;31399;51.176;7.776;2022-07-29T07:32:09;5.82;;;0.93;;
45686;SDS011;31399;51.176;7.776;2022-07-29T07:34:36;1.88;;;0.98;;
45686;SDS011;31399;51.176;7.776;2022-07-29T07:37:04;5.35;;;1.15;;
45686;SDS011;31399;51.176;7.776;2022-07-29T07:39:31;6.50;;;1.23;;
45686;SDS011;31399;51.176;7.776;2022-07-29T07:41:57;6.32;;;1.17;;
45686;SDS011;31399;51.176;7.776;2022-07-29T07:44:24;3.95;;;0.82;;
45686;SDS011;31399;51.176;7.776;2022-07-29T07:46:51;5.15;;;1.45;;
45686;SDS011;31399;51.176;7.776;2022-07-29T07:49:19;3.92;;;1.08;;
45686;SDS011;31399;51.176;7.776;2022-07-29T07:51:46;2.72;;;1.20;;
45686;SDS011;31399;51.176;7.776;2022-07-29T07:54:16;4.45;;;1.00;;
45686;SDS011;31399;51.176;7.776;2022-07-29T07:56:45;2.67;;;1.20;;
45686;SDS011;31399;51.176;7.776;2022-07-29T07:59:18;9.65;;;1.23;;
45686;SDS011;31399;51.176;7.776;2022-07-29T08:01:44;3.60;;;0.98;;
45686;SDS011;31399;51.176;7.776;2022-07-29T08:04:21;3.90;;;1.10;;
45686;SDS011;31399;51.176;7.776;2022-07-29T08:06:54;3.50;;;1.20;;
45686;SDS011;31399;51.176;7.776;2022-07-29T08:09:21;3.88;;;1.17;;
45686;SDS011;31399;51.176;7.776;2022-07-29T08:11:55;5.90;;;1.20;;
45686;SDS011;31399;51.176;7.776;2022-07-29T08:14:23;2.30;;;0.90;;
45686;SDS011;31399;51.176;7.776;2022-07-29T08:16:49;5.38;;;1.00;;
45686;SDS011;31399;51.176;7.776;2022-07-29T08:19:17;2.67;;;0.90;;
45686;SDS011;31399;51.176;7.776;2022-07-29T08:21:44;3.55;;;0.90;;
45686;SDS011;31399;51.176;7.776;2022-07-29T08:24:10;3.95;;;1.23;;
45686;SDS011;31399;51.176;7.776;2022-07-29T08:26:55;6.97;;;1.23;;
45686;SDS011;31399;51.176;7.776;2022-07-29T08:29:22;7.65;;;1.25;;
45686;SDS011;31399;51.176;7.776;2022-07-29T08:31:48;2.80;;;1.10;;
45686;SDS011;31399;51.176;7.776;2022-07-29T08:34:15;8.90;;;1.52;;
45686;SDS011;31399;51.176;7.776;2022-07-29T08:36:42;2.25;;;1.10;;
45686;SDS011;31399;51.176;7.776;2022-07-29T08:39:08;3.22;;;1.38;;
45686;SDS011;31399;51.176;7.776;2022-07-29T08:41:35;3.47;;;0.90;;
45686;SDS011;31399;51.176;7.776;2022-07-29T08:44:02;5.57;;;1.08;;
45686;SDS011;31399;51.176;7.776;2022-07-29T08:46:29;3.25;;;0.80;;
45686;SDS011;31399;51.176;7.776;2022-07-29T08:48:55;4.80;;;1.35;;
45686;SDS011;31399;51.176;7.776;2022-07-29T08:51:22;4.78;;;0.98;;
45686;SDS011;31399;51.176;7.776;2022-07-29T08:53:52;4.35;;;1.23;;
45686;SDS011;31399;51.176;7.776;2022-07-29T08:56:19;3.72;;;1.05;;
45686;SDS011;31399;51.176;7.776;2022-07-29T08:58:46;4.22;;;1.05;;
45686;SDS011;31399;51.176;7.776;2022-07-29T09:01:20;1.98;;;1.10;;
45686;SDS011;31399;51.176;7.776;2022-07-29T09:04:01;5.93;;;1.08;;
45686;SDS011;31399;51.176;7.776;2022-07-29T09:06:31;5.40;;;1.10;;
45686;SDS011;31399;51.176;7.776;2022-07-29T09:08:59;2.10;;;1.00;;
45686;SDS011;31399;51.176;7.776;2022-07-29T09:11:26;4.43;;;1.23;;
45686;SDS011;31399;51.176;7.776;2022-07-29T09:13:53;5.28;;;1.23;;
45686;SDS011;31399;51.176;7.776;2022-07-29T09:16:20;2.42;;;0.85;;
45686;SDS011;31399;51.176;7.776;2022-07-29T09:19:18;3.60;;;1.05;;
45686;SDS011;31399;51.176;7.776;2022-07-29T09:21:53;4.45;;;1.00;;
45686;SDS011;31399;51.176;7.776;2022-07-29T09:24:44;1.48;;;0.90;;
45686;SDS011;31399;51.176;7.776;2022-07-29T09:27:18;1.70;;;0.95;;
45686;SDS011;31399;51.176;7.776;2022-07-29T09:29:48;3.25;;;1.10;;
45686;SDS011;31399;51.176;7.776;2022-07-29T09:32:22;4.45;;;1.20;;
45686;SDS011;31399;51.176;7.776;2022-07-29T09:34:49;2.72;;;0.90;;
45686;SDS011;31399;51.176;7.776;2022-07-29T09:37:37;2.17;;;1.10;;
45686;SDS011;31399;51.176;7.776;2022-07-29T09:40:10;6.50;;;1.30;;
45686;SDS011;31399;51.176;7.776;2022-07-29T09:42:42;7.65;;;1.55;;
45686;SDS011;31399;51.176;7.776;2022-07-29T09:45:09;7.32;;;1.25;;
45686;SDS011;31399;51.176;7.776;2022-07-29T09:47:44;3.25;;;0.90;;
45686;SDS011;31399;51.176;7.776;2022-07-29T09:50:11;3.95;;;1.00;;
45686;SDS011;31399;51.176;7.776;2022-07-29T09:52:44;5.40;;;1.15;;
45686;SDS011;31399;51.176;7.776;2022-07-29T09:55:15;5.65;;;1.38;;
45686;SDS011;31399;51.176;7.776;2022-07-29T09:57:44;6.43;;;1.40;;
45686;SDS011;31399;51.176;7.776;2022-07-29T10:02:38;2.55;;;1.00;;
45686;SDS011;31399;51.176;7.776;2022-07-29T10:05:15;6.57;;;1.10;;
45686;SDS011;31399;51.176;7.776;2022-07-29T10:12:54;3.20;;;1.10;;
45686;SDS011;31399;51.176;7.776;2022-07-29T10:15:32;4.50;;;1.40;;
45686;SDS011;31399;51.176;7.776;2022-07-29T10:18:03;5.93;;;1.30;;
45686;SDS011;31399;51.176;7.776;2022-07-29T10:20:30;1.73;;;1.15;;
45686;SDS011;31399;51.176;7.776;2022-07-29T10:22:56;2.95;;;1.25;;
45686;SDS011;31399;51.176;7.776;2022-07-29T10:25:23;8.05;;;1.42;;
45686;SDS011;31399;51.176;7.776;2022-07-29T10:27:50;2.55;;;1.35;;
45686;SDS011;31399;51.176;7.776;2022-07-29T10:30:18;2.65;;;1.20;;
45686;SDS011;31399;51.176;7.776;2022-07-29T10:35:54;2.00;;;1.27;;
45686;SDS011;31399;51.176;7.776;2022-07-29T10:38:43;2.65;;;1.15;;
45686;SDS011;31399;51.176;7.776;2022-07-29T10:44:16;2.05;;;0.93;;
45686;SDS011;31399;51.176;7.776;2022-07-29T10:46:49;6.20;;;1.38;;
45686;SDS011;31399;51.176;7.776;2022-07-29T11:02:43;4.83;;;1.40;;
45686;SDS011;31399;51.176;7.776;2022-07-29T11:05:12;2.78;;;1.30;;
45686;SDS011;31399;51.176;7.776;2022-07-29T11:08:17;2.42;;;1.40;;
45686;SDS011;31399;51.176;7.776;2022-07-29T11:10:46;2.45;;;1.30;;
45686;SDS011;31399;51.176;7.776;2022-07-29T11:16:09;2.63;;;1.20;;
45686;SDS011;31399;51.176;7.776;2022-07-29T11:18:36;4.15;;;1.20;;
45686;SDS011;31399;51.176;7.776;2022-07-29T11:21:09;4.68;;;1.55;;
45686;SDS011;31399;51.176;7.776;2022-07-29T11:32:15;4.80;;;1.35;;
45686;SDS011;31399;51.176;7.776;2022-07-29T11:34:48;3.60;;;1.30;;
45686;SDS011;31399;51.176;7.776;2022-07-29T11:37:44;1.73;;;1.00;;
45686;SDS011;31399;51.176;7.776;2022-07-29T11:40:22;3.80;;;1.30;;
45686;SDS011;31399;51.176;7.776;2022-07-29T11:42:50;2.30;;;1.10;;
45686;SDS011;31399;51.176;7.776;2022-07-29T11:45:18;2.80;;;1.45;;
45686;SDS011;31399;51.176;7.776;2022-07-29T11:48:06;5.90;;;1.70;;
45686;SDS011;31399;51.176;7.776;2022-07-29T11:50:53;3.20;;;1.77;;
45686;SDS011;31399;51.176;7.776;2022-07-29T11:53:20;3.13;;;1.35;;
45686;SDS011;31399;51.176;7.776;2022-07-29T11:55:47;3.78;;;1.48;;
45686;SDS011;31399;51.176;7.776;2022-07-29T11:58:21;6.53;;;1.50;;
45686;SDS011;31399;51.176;7.776;2022-07-29T12:00:50;3.13;;;1.40;;
45686;SDS011;31399;51.176;7.776;2022-07-29T12:03:23;2.38;;;1.52;;
45686;SDS011;31399;51.176;7.776;2022-07-29T12:06:01;2.78;;;1.05;;
45686;SDS011;31399;51.176;7.776;2022-07-29T12:08:38;2.80;;;1.13;;
45686;SDS011;31399;51.176;7.776;2022-07-29T12:11:14;5.15;;;1.20;;
45686;SDS011;31399;51.176;7.776;2022-07-29T12:13:41;3.75;;;1.30;;
45686;SDS011;31399;51.176;7.776;2022-07-29T12:16:08;3.20;;;1.52;;
45686;SDS011;31399;51.176;7.776;2022-07-29T12:18:39;3.92;;;1.15;;
45686;SDS011;31399;51.176;7.776;2022-07-29T12:21:06;3.42;;;1.30;;
45686;SDS011;31399;51.176;7.776;2022-07-29T12:23:37;11.52;;;1.73;;
45686;SDS011;31399;51.176;7.776;2022-07-29T12:26:04;5.47;;;1.55;;
45686;SDS011;31399;51.176;7.776;2022-07-29T12:28:36;7.47;;;1.70;;
45686;SDS011;31399;51.176;7.776;2022-07-29T12:31:04;3.13;;;1.52;;
45686;SDS011;31399;51.176;7.776;2022-07-29T12:33:31;3.53;;;1.25;;
45686;SDS011;31399;51.176;7.776;2022-07-29T12:35:58;1.65;;;1.25;;
45686;SDS011;31399;51.176;7.776;2022-07-29T12:38:42;7.72;;;1.60;;
45686;SDS011;31399;51.176;7.776;2022-07-29T12:41:09;1.92;;;1.45;;
45686;SDS011;31399;51.176;7.776;2022-07-29T12:43:36;2.95;;;1.27;;
45686;SDS011;31399;51.176;7.776;2022-07-29T12:46:13;5.07;;;1.45;;
45686;SDS011;31399;51.176;7.776;2022-07-29T12:48:42;3.20;;;1.50;;
45686;SDS011;31399;51.176;7.776;2022-07-29T12:51:09;4.43;;;1.50;;
45686;SDS011;31399;51.176;7.776;2022-07-29T12:53:37;7.18;;;2.13;;
45686;SDS011;31399;51.176;7.776;2022-07-29T12:56:05;7.25;;;1.83;;
45686;SDS011;31399;51.176;7.776;2022-07-29T12:58:52;9.68;;;1.67;;
45686;SDS011;31399;51.176;7.776;2022-07-29T13:01:20;5.13;;;1.60;;
45686;SDS011;31399;51.176;7.776;2022-07-29T13:03:54;3.72;;;1.60;;
45686;SDS011;31399;51.176;7.776;2022-07-29T13:09:08;4.90;;;1.55;;
45686;SDS011;31399;51.176;7.776;2022-07-29T13:11:38;5.78;;;1.38;;
45686;SDS011;31399;51.176;7.776;2022-07-29T13:14:12;4.47;;;1.52;;
45686;SDS011;31399;51.176;7.776;2022-07-29T13:16:59;2.30;;;1.23;;
45686;SDS011;31399;51.176;7.776;2022-07-29T13:19:34;5.47;;;1.42;;
45686;SDS011;31399;51.176;7.776;2022-07-29T13:22:01;3.03;;;1.20;;
45686;SDS011;31399;51.176;7.776;2022-07-29T13:24:28;4.78;;;1.80;;
45686;SDS011;31399;51.176;7.776;2022-07-29T13:26:55;3.85;;;1.52;;
45686;SDS011;31399;51.176;7.776;2022-07-29T13:29:21;2.85;;;1.15;;
45686;SDS011;31399;51.176;7.776;2022-07-29T13:31:48;3.80;;;1.70;;
45686;SDS011;31399;51.176;7.776;2022-07-29T13:34:15;2.55;;;1.30;;
45686;SDS011;31399;51.176;7.776;2022-07-29T13:36:41;5.10;;;1.80;;
45686;SDS011;31399;51.176;7.776;2022-07-29T13:39:08;4.72;;;1.70;;
45686;SDS011;31399;51.176;7.776;2022-07-29T13:41:34;3.13;;;1.50;;
45686;SDS011;31399;51.176;7.776;2022-07-29T13:44:02;5.10;;;1.58;;
45686;SDS011;31399;51.176;7.776;2022-07-29T13:46:28;3.05;;;1.50;;
45686;SDS011;31399;51.176;7.776;2022-07-29T13:48:55;2.78;;;1.42;;
45686;SDS011;31399;51.176;7.776;2022-07-29T13:51:22;5.25;;;1.45;;
45686;SDS011;31399;51.176;7.776;2022-07-29T13:53:49;2.58;;;1.52;;
45686;SDS011;31399;51.176;7.776;2022-07-29T13:56:15;5.32;;;1.75;;
45686;SDS011;31399;51.176;7.776;2022-07-29T13:58:42;2.85;;;1.40;;
45686;SDS011;31399;51.176;7.776;2022-07-29T14:01:08;2.28;;;1.25;;
45686;SDS011;31399;51.176;7.776;2022-07-29T14:03:35;5.43;;;1.63;;
45686;SDS011;31399;51.176;7.776;2022-07-29T14:06:05;5.60;;;1.30;;
45686;SDS011;31399;51.176;7.776;2022-07-29T14:08:31;4.47;;;1.70;;
45686;SDS011;31399;51.176;7.776;2022-07-29T14:10:58;6.22;;;1.40;;
45686;SDS011;31399;51.176;7.776;2022-07-29T14:13:25;3.30;;;1.30;;
45686;SDS011;31399;51.176;7.776;2022-07-29T14:15:51;8.30;;;1.77;;
45686;SDS011;31399;51.176;7.776;2022-07-29T14:18:18;4.07;;;1.30;;
45686;SDS011;31399;51.176;7.776;2022-07-29T14:20:45;7.43;;;1.70;;
45686;SDS011;31399;51.176;7.776;2022-07-29T14:23:11;5.28;;;1.35;;
45686;SDS011;31399;51.176;7.776;2022-07-29T14:25:41;3.95;;;1.40;;
45686;SDS011;31399;51.176;7.776;2022-07-29T14:28:09;4.75;;;2.00;;
45686;SDS011;31399;51.176;7.776;2022-07-29T14:30:36;5.20;;;1.48;;
45686;SDS011;31399;51.176;7.776;2022-07-29T14:33:03;7.03;;;2.65;;
45686;SDS011;31399;51.176;7.776;2022-07-29T14:35:29;4.22;;;1.50;;
45686;SDS011;31399;51.176;7.776;2022-07-29T14:37:56;3.30;;;1.48;;
45686;SDS011;31399;51.176;7.776;2022-07-29T14:40:23;3.33;;;1.33;;
45686;SDS011;31399;51.176;7.776;2022-07-29T14:42:50;4.57;;;1.52;;
45686;SDS011;31399;51.176;7.776;2022-07-29T14:45:16;7.15;;;1.60;;
45686;SDS011;31399;51.176;7.776;2022-07-29T14:47:43;7.70;;;2.08;;
45686;SDS011;31399;51.176;7.776;2022-07-29T14:50:09;2.60;;;1.50;;
45686;SDS011;31399;51.176;7.776;2022-07-29T14:52:36;3.65;;;1.40;;
45686;SDS011;31399;51.176;7.776;2022-07-29T14:55:03;5.75;;;1.58;;
45686;SDS011;31399;51.176;7.776;2022-07-29T14:57:41;3.97;;;1.30;;
45686;SDS011;31399;51.176;7.776;2022-07-29T15:00:08;4.57;;;1.70;;
45686;SDS011;31399;51.176;7.776;2022-07-29T15:02:36;5.15;;;1.75;;
45686;SDS011;31399;51.176;7.776;2022-07-29T15:05:23;6.30;;;1.70;;
45686;SDS011;31399;51.176;7.776;2022-07-29T15:07:49;5.03;;;1.23;;
45686;SDS011;31399;51.176;7.776;2022-07-29T15:10:16;3.22;;;1.23;;
45686;SDS011;31399;51.176;7.776;2022-07-29T15:12:43;8.25;;;1.55;;
45686;SDS011;31399;51.176;7.776;2022-07-29T15:15:09;5.88;;;1.63;;
45686;SDS011;31399;51.176;7.776;2022-07-29T15:17:36;2.30;;;1.35;;
45686;SDS011;31399;51.176;7.776;2022-07-29T15:20:03;3.92;;;1.10;;
45686;SDS011;31399;51.176;7.776;2022-07-29T15:22:30;7.50;;;1.35;;
45686;SDS011;31399;51.176;7.776;2022-07-29T15:24:57;4.25;;;1.35;;
45686;SDS011;31399;51.176;7.776;2022-07-29T15:27:23;6.70;;;1.40;;
45686;SDS011;31399;51.176;7.776;2022-07-29T15:29:50;7.05;;;1.20;;
45686;SDS011;31399;51.176;7.776;2022-07-29T15:32:17;10.43;;;1.38;;
45686;SDS011;31399;51.176;7.776;2022-07-29T15:34:44;5.78;;;1.13;;
45686;SDS011;31399;51.176;7.776;2022-07-29T15:37:10;5.47;;;1.08;;
45686;SDS011;31399;51.176;7.776;2022-07-29T15:39:37;3.95;;;1.35;;
45686;SDS011;31399;51.176;7.776;2022-07-29T15:42:04;7.32;;;1.40;;
45686;SDS011;31399;51.176;7.776;2022-07-29T15:44:30;7.55;;;1.35;;
45686;SDS011;31399;51.176;7.776;2022-07-29T15:46:57;4.60;;;1.30;;
45686;SDS011;31399;51.176;7.776;2022-07-29T15:54:41;5.45;;;1.48;;
45686;SDS011;31399;51.176;7.776;2022-07-29T15:57:08;4.53;;;1.17;;
45686;SDS011;31399;51.176;7.776;2022-07-29T15:59:35;3.88;;;1.27;;
45686;SDS011;31399;51.176;7.776;2022-07-29T16:02:01;5.55;;;1.10;;